Time;durP1;ratioP1;P1;durP2;ratioP2;P2;SDS_P1;SDS_P2;PMS_P1;PMS_P2;Temp;Humidity;BMP_temperature;BMP_pressure;BME280_temperature;BME280_humidity;BME280_pressure;Samples;Min_cycle;Max_cycle;Signal;HPM_P1;HPM_P2
2022/06/02 00:01:42;;;;;;;4.40;3.40;;;11.80;99.90;;;;;;7335523;19;108352;-86
2022/06/02 00:04:24;;;;;;;4.82;3.05;;;11.70;99.90;;;;;;7334961;19;109099;-86
2022/06/02 00:07:10;;;;;;;6.30;3.40;;;11.70;99.90;;;;;;7347672;19;108847;-87
2022/06/02 00:10:06;;;;;;;6.35;2.78;;;11.70;99.90;;;;;;7338004;19;108706;-87
2022/06/02 00:12:50;;;;;;;3.92;3.47;;;11.70;99.90;;;;;;7340166;19;108447;-87
2022/06/02 00:15:36;;;;;;;6.15;3.65;;;11.60;99.90;;;;;;7340054;19;107849;-87
2022/06/02 00:18:26;;;;;;;6.15;3.60;;;11.60;99.90;;;;;;7339599;19;108087;-86
2022/06/02 00:21:09;;;;;;;3.55;3.17;;;11.50;99.90;;;;;;7339569;19;107757;-87
2022/06/02 00:23:43;;;;;;;3.63;3.33;;;11.50;99.90;;;;;;7337372;19;108001;-86
2022/06/02 00:26:19;;;;;;;4.05;3.30;;;11.50;99.90;;;;;;7338737;19;109168;-87
2022/06/02 00:29:10;;;;;;;5.10;3.72;;;11.40;99.90;;;;;;7339678;19;108036;-87
2022/06/02 00:31:52;;;;;;;8.10;3.65;;;11.30;99.90;;;;;;7344579;19;108155;-87
2022/06/02 00:34:39;;;;;;;4.53;3.80;;;11.30;99.90;;;;;;7338547;19;111423;-86
2022/06/02 00:37:17;;;;;;;4.32;3.30;;;11.30;99.90;;;;;;7337755;19;107391;-87
2022/06/02 00:39:47;;;;;;;3.53;3.22;;;11.20;99.90;;;;;;7340123;19;109085;-86
2022/06/02 00:42:45;;;;;;;4.25;3.80;;;11.20;99.90;;;;;;7338609;19;108076;-87
2022/06/02 00:45:15;;;;;;;4.40;4.00;;;11.20;99.90;;;;;;7337563;19;108790;-87
2022/06/02 00:47:48;;;;;;;4.40;4.00;;;11.10;99.90;;;;;;7337109;19;109250;-86
2022/06/02 00:50:40;;;;;;;5.55;3.97;;;11.10;99.90;;;;;;7340833;19;107918;-86
2022/06/02 00:53:20;;;;;;;4.65;4.25;;;11.10;99.90;;;;;;7344795;19;108770;-86
2022/06/02 00:59:30;;;;;;;3.95;3.47;;;11.00;99.90;;;;;;7339748;19;108766;-87
2022/06/02 01:01:57;;;;;;;6.38;3.50;;;11.00;99.90;;;;;;7337829;19;109228;-87
2022/06/02 01:04:24;;;;;;;4.28;3.88;;;10.90;99.90;;;;;;7337251;19;108411;-87
2022/06/02 01:07:14;;;;;;;3.72;3.33;;;10.90;99.90;;;;;;7336586;19;110775;-86
2022/06/02 01:10:18;;;;;;;5.00;3.88;;;10.80;99.90;;;;;;7340696;19;108671;-87
2022/06/02 01:13:08;;;;;;;5.60;3.30;;;10.80;99.90;;;;;;7340699;19;108783;-86
2022/06/02 01:15:51;;;;;;;4.70;4.18;;;10.80;99.90;;;;;;7341634;19;108008;-86
2022/06/02 01:18:26;;;;;;;5.03;3.67;;;10.70;99.90;;;;;;7347862;19;108699;-86
2022/06/02 01:21:08;;;;;;;3.75;3.45;;;10.70;99.90;;;;;;7341775;19;108414;-87
2022/06/02 01:24:02;;;;;;;7.15;4.15;;;10.70;99.90;;;;;;7341065;19;109219;-87
2022/06/02 01:26:32;;;;;;;4.18;3.78;;;10.60;99.90;;;;;;7342625;19;107959;-87
2022/06/02 01:29:04;;;;;;;4.30;3.67;;;10.60;99.90;;;;;;7343615;19;108385;-87
2022/06/02 01:31:40;;;;;;;4.63;3.53;;;10.60;99.90;;;;;;7342463;19;107958;-87
2022/06/02 01:34:20;;;;;;;9.30;3.92;;;10.50;99.90;;;;;;7340161;19;108265;-87
2022/06/02 01:37:02;;;;;;;3.75;3.45;;;10.50;99.90;;;;;;7341849;19;108255;-87
2022/06/02 01:39:41;;;;;;;5.80;3.92;;;10.50;99.90;;;;;;7336548;19;111669;-86
2022/06/02 01:42:30;;;;;;;4.80;4.28;;;10.40;99.90;;;;;;7344518;19;108877;-87
2022/06/02 01:45:22;;;;;;;3.90;3.55;;;10.40;99.90;;;;;;7338982;19;112750;-86
2022/06/02 01:48:01;;;;;;;5.25;4.15;;;10.40;99.90;;;;;;7340447;19;108300;-86
2022/06/02 01:50:47;;;;;;;5.75;4.07;;;10.30;99.90;;;;;;7343426;19;108304;-87
2022/06/02 01:53:37;;;;;;;5.47;4.50;;;10.30;99.90;;;;;;7342086;19;108216;-85
2022/06/02 01:56:17;;;;;;;6.53;4.18;;;10.30;99.90;;;;;;7344690;19;109796;-86
2022/06/02 01:59:13;;;;;;;5.15;4.40;;;10.30;99.90;;;;;;7345075;19;110783;-87
2022/06/02 02:01:50;;;;;;;4.57;4.18;;;10.30;99.90;;;;;;7344323;19;108673;-86
2022/06/02 02:04:44;;;;;;;4.50;4.10;;;10.20;99.90;;;;;;7343061;19;108307;-87
2022/06/02 02:07:31;;;;;;;6.07;4.47;;;10.20;99.90;;;;;;7349763;19;108627;-86
2022/06/02 02:10:32;;;;;;;5.18;4.78;;;10.00;99.90;;;;;;7336204;19;107955;-87
2022/06/02 02:13:42;;;;;;;5.80;5.07;;;10.00;99.90;;;;;;7341076;19;111325;-87
2022/06/02 02:16:33;;;;;;;4.18;3.88;;;10.00;99.90;;;;;;7343086;19;108680;-87
2022/06/02 02:19:06;;;;;;;4.45;3.90;;;10.00;99.90;;;;;;7338470;19;108347;-86
2022/06/02 02:22:02;;;;;;;4.68;4.20;;;10.00;99.90;;;;;;7337408;19;109908;-86
2022/06/02 02:24:59;;;;;;;4.90;4.00;;;10.00;99.90;;;;;;7340529;19;108500;-87
2022/06/02 02:28:02;;;;;;;4.72;3.72;;;9.90;99.90;;;;;;7342041;19;107962;-87
2022/06/02 02:30:44;;;;;;;5.28;4.40;;;9.90;99.90;;;;;;7345441;19;108139;-86
2022/06/02 02:33:38;;;;;;;4.05;3.35;;;9.90;99.90;;;;;;7350742;19;110305;-87
2022/06/02 02:36:30;;;;;;;5.72;3.90;;;9.80;99.90;;;;;;7345301;19;109729;-86
2022/06/02 02:39:25;;;;;;;5.90;4.38;;;9.80;99.90;;;;;;7343252;19;109182;-85
2022/06/02 02:42:05;;;;;;;5.03;4.53;;;9.80;99.90;;;;;;7348288;19;108495;-87
2022/06/02 02:45:04;;;;;;;5.63;5.07;;;9.70;99.90;;;;;;7345991;19;109675;-87
2022/06/02 02:47:38;;;;;;;8.82;5.93;;;9.60;99.90;;;;;;7345919;19;109204;-87
2022/06/02 02:50:11;;;;;;;6.35;5.40;;;9.40;99.90;;;;;;7345505;19;109204;-86
2022/06/02 02:52:55;;;;;;;7.45;5.03;;;9.30;99.90;;;;;;7345806;19;111211;-85
2022/06/02 02:55:33;;;;;;;4.57;4.18;;;9.30;99.90;;;;;;7344385;19;109079;-87
2022/06/02 02:58:10;;;;;;;4.50;4.10;;;9.40;99.90;;;;;;7348822;19;108273;-86
2022/06/02 03:01:06;;;;;;;8.32;4.35;;;9.40;99.90;;;;;;7347106;19;109239;-86
2022/06/02 03:03:36;;;;;;;4.68;3.95;;;9.40;99.90;;;;;;7341095;19;110601;-86
2022/06/02 03:06:03;;;;;;;5.43;4.10;;;9.40;99.90;;;;;;7338607;19;108472;-80
2022/06/02 03:08:50;;;;;;;;;;;9.40;99.90;;;;;;7343227;19;108456;-81
2022/06/02 03:11:55;;;;;;;5.35;4.45;;;9.30;99.90;;;;;;7347991;19;107600;-79
2022/06/02 03:14:55;;;;;;;3.83;3.50;;;9.30;99.90;;;;;;7343172;19;107855;-80
2022/06/02 03:17:43;;;;;;;3.83;3.53;;;9.40;99.90;;;;;;7343252;19;112445;-81
2022/06/02 03:20:17;;;;;;;7.05;3.50;;;9.30;99.90;;;;;;7348841;19;108294;-81
2022/06/02 03:23:04;;;;;;;5.50;3.92;;;9.30;99.90;;;;;;7345433;19;109178;-81
2022/06/02 03:25:38;;;;;;;4.38;3.35;;;9.30;99.90;;;;;;7343283;19;108090;-81
2022/06/02 03:28:15;;;;;;;3.28;3.00;;;9.30;99.90;;;;;;7344072;19;108485;-80
2022/06/02 03:31:05;;;;;;;5.78;3.60;;;9.30;99.90;;;;;;7346629;19;107816;-81
2022/06/02 03:33:41;;;;;;;4.25;3.85;;;9.20;99.90;;;;;;7344153;19;108055;-81
2022/06/02 03:36:08;;;;;;;3.88;3.58;;;9.30;99.90;;;;;;7343827;19;108782;-81
2022/06/02 03:39:11;;;;;;;;;;;9.30;99.90;;;;;;7344294;19;108793;-81
2022/06/02 03:41:59;;;;;;;5.78;3.40;;;9.20;99.90;;;;;;7341973;19;111145;-81
2022/06/02 03:44:34;;;;;;;4.25;3.85;;;9.20;99.90;;;;;;7344083;19;108624;-81
2022/06/02 03:47:16;;;;;;;4.25;3.83;;;9.10;99.90;;;;;;7339250;19;107797;-81
2022/06/02 03:50:09;;;;;;;5.60;3.67;;;9.10;99.90;;;;;;7339220;19;108440;-81
2022/06/02 03:53:04;;;;;;;4.13;3.72;;;9.00;99.90;;;;;;7338955;19;108778;-81
2022/06/02 03:55:47;;;;;;;6.30;3.63;;;9.10;99.90;;;;;;7335557;19;110832;-81
2022/06/02 03:58:51;;;;;;;4.82;4.25;;;9.10;99.90;;;;;;7337263;19;108435;-81
2022/06/02 04:01:24;;;;;;;7.05;4.18;;;9.10;99.90;;;;;;7339037;19;109403;-81
2022/06/02 04:04:09;;;;;;;4.75;4.25;;;9.10;99.90;;;;;;7337435;19;107467;-82
2022/06/02 04:07:17;;;;;;;4.85;4.10;;;9.10;99.90;;;;;;7337665;19;109114;-81
2022/06/02 04:09:47;;;;;;;5.35;4.85;;;9.10;99.90;;;;;;7342321;19;109282;-81
2022/06/02 04:15:26;;;;;;;5.97;5.15;;;9.20;99.90;;;;;;7335617;19;108627;-82
2022/06/02 04:18:28;;;;;;;9.00;5.05;;;9.20;99.90;;;;;;7339853;19;108139;-81
2022/06/02 04:21:13;;;;;;;5.45;4.85;;;9.30;99.90;;;;;;7342277;19;108254;-81
2022/06/02 04:23:45;;;;;;;6.15;4.82;;;9.30;99.90;;;;;;7341250;19;108535;-81
2022/06/02 04:26:22;;;;;;;6.25;5.60;;;9.40;99.90;;;;;;7336530;19;108402;-81
2022/06/02 04:29:10;;;;;;;6.60;5.87;;;9.30;99.90;;;;;;7337936;19;108281;-81
2022/06/02 04:31:56;;;;;;;12.93;6.03;;;9.30;99.90;;;;;;7338980;19;109206;-81
2022/06/02 04:34:46;;;;;;;7.18;5.57;;;9.20;99.90;;;;;;7347446;19;108332;-81
2022/06/02 04:37:23;;;;;;;8.57;6.80;;;9.20;99.90;;;;;;7337875;19;108961;-81
2022/06/02 04:40:27;;;;;;;7.60;6.40;;;9.20;99.90;;;;;;7340708;19;107930;-81
2022/06/02 04:43:13;;;;;;;11.13;7.90;;;9.40;99.90;;;;;;7342195;19;111760;-81
2022/06/02 04:46:03;;;;;;;7.30;6.60;;;9.40;99.90;;;;;;7346749;19;109150;-81
2022/06/02 04:48:37;;;;;;;9.57;7.15;;;9.50;99.90;;;;;;7346616;19;110187;-81
2022/06/02 04:51:22;;;;;;;9.48;7.63;;;9.50;99.90;;;;;;7348477;19;108414;-81
2022/06/02 04:54:12;;;;;;;14.05;7.90;;;9.60;99.90;;;;;;7343924;19;109192;-81
2022/06/02 04:57:05;;;;;;;11.88;7.80;;;9.70;99.90;;;;;;7345590;19;107631;-81
2022/06/02 04:59:57;;;;;;;12.45;6.97;;;9.90;99.90;;;;;;7351189;19;107997;-81
2022/06/02 05:02:48;;;;;;;9.00;7.90;;;9.90;99.90;;;;;;7347328;19;108873;-81
2022/06/02 05:05:33;;;;;;;16.27;9.70;;;10.00;99.90;;;;;;7345482;19;107809;-81
2022/06/02 05:08:37;;;;;;;16.60;11.20;;;10.10;99.90;;;;;;7345349;19;112058;-82
2022/06/02 05:11:41;;;;;;;20.08;12.50;;;10.20;99.90;;;;;;7342236;19;111667;-81
2022/06/02 05:14:16;;;;;;;21.83;12.25;;;10.20;99.90;;;;;;7336613;19;111820;-81
2022/06/02 05:17:14;;;;;;;18.80;11.38;;;10.30;99.90;;;;;;7341892;19;111843;-81
2022/06/02 05:19:59;;;;;;;14.48;11.43;;;10.40;99.90;;;;;;7339004;19;110491;-82
2022/06/02 05:22:51;;;;;;;15.20;11.02;;;10.60;99.90;;;;;;7341374;19;111872;-83
2022/06/02 05:25:43;;;;;;;12.75;10.82;;;10.70;99.90;;;;;;7347987;19;110960;-81
2022/06/02 05:28:38;;;;;;;16.10;12.13;;;10.90;99.90;;;;;;7342288;19;111951;-81
2022/06/02 05:31:30;;;;;;;18.70;13.23;;;11.00;99.90;;;;;;7341802;19;110606;-82
2022/06/02 05:34:23;;;;;;;15.80;13.50;;;11.10;99.90;;;;;;7339709;19;110847;-81
2022/06/02 05:36:59;;;;;;;19.60;14.43;;;11.20;99.90;;;;;;7340397;19;111906;-82
2022/06/02 05:39:44;;;;;;;20.52;15.02;;;11.30;99.90;;;;;;7336784;19;110739;-80
2022/06/02 05:42:36;;;;;;;21.27;16.08;;;11.50;99.90;;;;;;7340720;19;111236;-82
2022/06/02 05:45:15;;;;;;;28.15;17.30;;;11.70;99.90;;;;;;7339458;19;114708;-81
2022/06/02 05:48:01;;;;;;;23.75;16.92;;;11.90;99.90;;;;;;7346818;19;110111;-83
2022/06/02 05:50:41;;;;;;;22.38;17.73;;;12.00;99.90;;;;;;7344445;19;112657;-82
2022/06/02 05:53:14;;;;;;;26.60;17.77;;;12.20;99.90;;;;;;7341646;19;110861;-82
2022/06/02 05:56:04;;;;;;;26.48;18.27;;;12.30;99.90;;;;;;7341328;19;111816;-81
2022/06/02 05:58:55;;;;;;;22.88;16.48;;;12.40;99.90;;;;;;7342257;19;110776;-81
2022/06/02 06:01:37;;;;;;;22.95;17.40;;;12.60;99.90;;;;;;7342370;19;110329;-82
2022/06/02 06:04:34;;;;;;;32.00;18.88;;;12.80;99.90;;;;;;7342666;19;111156;-81
2022/06/02 06:07:24;;;;;;;24.80;18.40;;;13.00;99.90;;;;;;7342470;19;112454;-81
2022/06/02 06:10:03;;;;;;;26.45;17.95;;;13.10;99.90;;;;;;7340411;19;110790;-82
2022/06/02 06:12:45;;;;;;;21.88;17.35;;;13.30;99.90;;;;;;7346600;19;110399;-81
2022/06/02 06:15:21;;;;;;;22.83;16.75;;;13.40;99.90;;;;;;7341108;19;109962;-81
2022/06/02 06:17:49;;;;;;;18.27;14.73;;;13.60;99.90;;;;;;7341900;19;110426;-82
2022/06/02 06:20:47;;;;;;;24.15;16.02;;;13.60;99.90;;;;;;7342916;19;111761;-82
2022/06/02 06:23:32;;;;;;;17.30;15.18;;;13.70;99.90;;;;;;7342207;19;110080;-81
2022/06/02 06:26:13;;;;;;;25.73;16.30;;;13.90;99.90;;;;;;7340642;19;111110;-82
2022/06/02 06:29:04;;;;;;;23.13;16.13;;;14.00;99.90;;;;;;7340520;19;115043;-82
2022/06/02 06:31:51;;;;;;;22.80;15.75;;;14.20;99.90;;;;;;7341421;19;112019;-82
2022/06/02 06:34:37;;;;;;;19.75;15.07;;;14.30;99.90;;;;;;7340561;19;111227;-82
2022/06/02 06:37:23;;;;;;;20.00;14.93;;;14.50;99.90;;;;;;7345832;19;111707;-82
2022/06/02 06:40:09;;;;;;;19.02;14.43;;;14.70;99.90;;;;;;7340077;19;112571;-82
2022/06/02 06:42:56;;;;;;;17.40;14.65;;;14.80;99.90;;;;;;7342501;19;112189;-83
2022/06/02 06:46:01;;;;;;;18.15;13.73;;;14.90;99.90;;;;;;7341446;19;109838;-82
2022/06/02 06:48:42;;;;;;;17.05;14.40;;;15.10;99.90;;;;;;7339235;19;111070;-83
2022/06/02 06:51:44;;;;;;;15.02;13.43;;;15.10;99.90;;;;;;7341024;19;111481;-84
2022/06/02 06:54:26;;;;;;;23.83;12.90;;;15.10;99.90;;;;;;7339222;19;111068;-84
2022/06/02 06:57:28;;;;;;;15.05;13.38;;;15.20;99.90;;;;;;7338449;19;111829;-84
2022/06/02 07:00:19;;;;;;;20.35;13.50;;;15.30;99.90;;;;;;7336530;19;112432;-84
2022/06/02 07:03:14;;;;;;;18.63;14.52;;;15.30;99.90;;;;;;7340255;19;110233;-84
2022/06/02 07:05:47;;;;;;;18.90;13.38;;;15.10;99.90;;;;;;7338115;19;111883;-84
2022/06/02 07:08:33;;;;;;;16.02;13.85;;;15.10;99.90;;;;;;7335213;19;110571;-84
2022/06/02 07:11:03;;;;;;;12.80;11.30;;;15.20;99.90;;;;;;7336387;19;111451;-84
2022/06/02 07:13:35;;;;;;;14.23;11.00;;;15.30;99.90;;;;;;7336373;19;111629;-84
2022/06/02 07:16:22;;;;;;;13.60;10.68;;;15.40;99.90;;;;;;7336096;19;110830;-84
2022/06/02 07:19:16;;;;;;;15.18;11.02;;;15.50;99.90;;;;;;7337625;19;111533;-84
2022/06/02 07:21:52;;;;;;;12.82;10.27;;;15.70;99.90;;;;;;7337338;19;114645;-85
2022/06/02 07:24:43;;;;;;;11.90;9.85;;;15.80;99.90;;;;;;7336233;19;110331;-85
2022/06/02 07:27:30;;;;;;;11.48;10.27;;;15.90;99.90;;;;;;7344540;19;111773;-85
2022/06/02 07:30:03;;;;;;;10.82;9.35;;;16.20;99.90;;;;;;7335371;19;110319;-84
2022/06/02 07:33:07;;;;;;;11.93;8.90;;;16.20;99.90;;;;;;7339743;19;112516;-84
2022/06/02 07:35:53;;;;;;;9.18;8.27;;;16.20;99.90;;;;;;7340028;19;108464;-85
2022/06/02 07:38:42;;;;;;;11.35;8.30;;;16.10;99.90;;;;;;7341888;19;108976;-84
2022/06/02 07:41:32;;;;;;;9.32;8.43;;;16.00;99.90;;;;;;7343577;19;110046;-84
2022/06/02 07:44:12;;;;;;;9.40;7.40;;;16.20;99.90;;;;;;7340988;19;110563;-84
2022/06/02 07:46:58;;;;;;;9.52;7.82;;;16.30;99.90;;;;;;7340772;19;108605;-84
2022/06/02 07:49:50;;;;;;;19.13;7.47;;;16.30;99.90;;;;;;7343400;19;107875;-84
2022/06/02 07:52:23;;;;;;;14.15;7.63;;;16.40;99.90;;;;;;7347688;19;108851;-85
2022/06/02 07:55:15;;;;;;;9.23;5.93;;;16.60;99.90;;;;;;7343147;19;107272;-85
2022/06/02 07:58:07;;;;;;;8.35;6.22;;;16.70;99.90;;;;;;7343804;19;108024;-84
2022/06/02 08:01:13;;;;;;;10.40;7.40;;;16.70;99.90;;;;;;7341928;19;108755;-84
2022/06/02 08:04:05;;;;;;;9.57;7.50;;;16.60;99.90;;;;;;7339108;19;108555;-84
2022/06/02 08:07:10;;;;;;;13.20;6.82;;;16.70;99.90;;;;;;7343139;19;108408;-84
2022/06/02 08:09:56;;;;;;;7.32;6.30;;;16.80;99.90;;;;;;7337532;19;107894;-84
2022/06/02 08:12:29;;;;;;;6.03;5.53;;;16.80;99.90;;;;;;7342328;19;107942;-84
2022/06/02 08:15:08;;;;;;;5.85;5.35;;;16.90;99.90;;;;;;7347621;19;107869;-85
2022/06/02 08:17:43;;;;;;;6.25;5.30;;;16.80;99.90;;;;;;7341557;19;108104;-85
2022/06/02 08:20:16;;;;;;;7.20;6.43;;;16.80;99.90;;;;;;7339029;19;108365;-84
2022/06/02 08:23:12;;;;;;;8.18;6.47;;;16.60;99.90;;;;;;7341379;19;108997;-84
2022/06/02 08:25:56;;;;;;;6.15;5.55;;;16.70;99.90;;;;;;7341282;19;107716;-84
2022/06/02 08:28:23;;;;;;;6.75;6.05;;;17.00;99.90;;;;;;7342724;19;111813;-84
2022/06/02 08:30:53;;;;;;;7.38;6.15;;;17.10;99.90;;;;;;7341641;19;112009;-84
2022/06/02 08:33:38;;;;;;;6.40;5.80;;;17.00;99.50;;;;;;7342452;19;107832;-85
2022/06/02 08:36:29;;;;;;;7.38;5.82;;;16.90;99.10;;;;;;7341390;19;108197;-85
2022/06/02 08:39:28;;;;;;;9.95;5.97;;;16.90;99.90;;;;;;7345424;19;111854;-85
2022/06/02 08:42:04;;;;;;;5.18;4.68;;;17.00;99.90;;;;;;7339429;19;108527;-84
2022/06/02 08:44:51;;;;;;;5.47;4.85;;;17.20;99.50;;;;;;7340614;19;111964;-85
2022/06/02 08:47:24;;;;;;;12.27;4.10;;;17.40;99.20;;;;;;7338768;19;108473;-84
2022/06/02 08:50:12;;;;;;;6.10;4.75;;;17.40;98.80;;;;;;7341283;19;108381;-86
2022/06/02 08:53:16;;;;;;;5.13;4.65;;;17.30;98.40;;;;;;7342835;19;109156;-84
2022/06/02 08:56:11;;;;;;;4.15;3.70;;;17.50;98.60;;;;;;7339547;19;109910;-84
2022/06/02 08:58:58;;;;;;;4.63;4.15;;;17.40;97.50;;;;;;7341232;19;108256;-84
2022/06/02 09:01:31;;;;;;;5.40;4.90;;;17.30;97.70;;;;;;7340914;19;108761;-85
2022/06/02 09:04:09;;;;;;;5.82;4.07;;;17.20;98.40;;;;;;7346427;19;108019;-84
2022/06/02 09:06:49;;;;;;;4.10;3.67;;;17.20;97.40;;;;;;7339027;19;108224;-85
2022/06/02 09:09:34;;;;;;;5.00;4.45;;;17.30;97.20;;;;;;7339734;19;108006;-84
2022/06/02 09:12:06;;;;;;;6.47;4.85;;;17.20;97.20;;;;;;7338770;19;111674;-86
2022/06/02 09:15:06;;;;;;;5.18;4.78;;;17.10;97.50;;;;;;7340411;19;107987;-85
2022/06/02 09:17:53;;;;;;;7.78;5.40;;;17.20;97.30;;;;;;7338441;19;107777;-85
2022/06/02 09:20:20;;;;;;;5.28;4.60;;;17.30;97.60;;;;;;7338543;19;108434;-84
2022/06/02 09:22:47;;;;;;;5.82;4.80;;;17.40;97.70;;;;;;7340359;19;111265;-84
2022/06/02 09:25:35;;;;;;;5.55;4.70;;;17.40;97.30;;;;;;7339541;19;107749;-86
2022/06/02 09:28:25;;;;;;;7.68;6.25;;;17.70;96.90;;;;;;7345925;19;108580;-85
2022/06/02 09:30:56;;;;;;;;;;;17.80;98.00;;;;;;7343101;19;110527;-85
2022/06/02 09:34:01;;;;;;;7.30;6.00;;;17.80;97.00;;;;;;7350890;19;108039;-85
2022/06/02 09:36:46;;;;;;;7.82;5.32;;;17.70;97.70;;;;;;7346270;19;108915;-85
2022/06/02 09:39:33;;;;;;;6.78;6.13;;;17.80;97.30;;;;;;7347750;19;108309;-85
2022/06/02 09:42:12;;;;;;;6.47;5.87;;;17.70;96.80;;;;;;7345011;19;108762;-85
2022/06/02 09:44:42;;;;;;;6.05;5.50;;;17.60;96.80;;;;;;7345707;19;111894;-84
2022/06/02 09:47:51;;;;;;;5.43;4.93;;;17.60;97.30;;;;;;7346439;19;108189;-85
2022/06/02 09:50:44;;;;;;;7.28;5.35;;;17.60;96.80;;;;;;7345906;19;108198;-85
2022/06/02 09:53:32;;;;;;;7.32;6.07;;;17.50;96.90;;;;;;7351790;19;108878;-84
2022/06/02 09:56:36;;;;;;;6.50;5.28;;;17.50;97.20;;;;;;7345225;19;108054;-85
2022/06/02 09:59:10;;;;;;;7.53;5.32;;;17.70;97.10;;;;;;7344888;19;109067;-84
2022/06/02 10:01:44;;;;;;;5.93;5.43;;;18.00;97.50;;;;;;7344088;19;107547;-85
2022/06/02 10:04:28;;;;;;;13.75;3.58;;;18.30;96.70;;;;;;7344919;19;108250;-85
2022/06/02 10:07:06;;;;;;;14.98;3.50;;;18.40;96.50;;;;;;7346860;19;109310;-84
2022/06/02 10:09:54;;;;;;;4.95;2.60;;;18.70;96.50;;;;;;7345066;19;107209;-85
2022/06/02 10:12:55;;;;;;;5.30;3.03;;;18.70;95.60;;;;;;7343881;19;108682;-86
2022/06/02 10:15:41;;;;;;;4.10;3.45;;;18.90;95.30;;;;;;7346983;19;109158;-85
2022/06/02 10:18:27;;;;;;;3.55;3.22;;;19.00;94.70;;;;;;7347127;19;108306;-86
2022/06/02 10:21:15;;;;;;;3.90;2.95;;;19.10;95.50;;;;;;7344917;19;108766;-87
2022/06/02 10:23:42;;;;;;;3.25;2.95;;;19.40;95.30;;;;;;7346828;19;108266;-88
2022/06/02 10:26:21;;;;;;;3.28;2.95;;;19.60;94.60;;;;;;7344998;19;110774;-87
2022/06/02 10:29:18;;;;;;;4.60;2.90;;;19.70;95.10;;;;;;7346213;19;108958;-87
2022/06/02 10:31:48;;;;;;;8.97;3.17;;;19.80;95.00;;;;;;7344809;19;107999;-88
2022/06/02 10:34:51;;;;;;;4.47;2.60;;;20.00;94.70;;;;;;7345753;19;108487;-89
2022/06/02 10:37:33;;;;;;;3.00;2.70;;;19.90;92.40;;;;;;7346516;19;108811;-87
2022/06/02 10:40:09;;;;;;;3.28;2.17;;;19.90;93.80;;;;;;7349436;19;108486;-87
2022/06/02 10:42:48;;;;;;;3.72;2.35;;;20.10;94.30;;;;;;7342020;19;109136;-87
2022/06/02 10:45:53;;;;;;;5.00;2.30;;;20.20;92.00;;;;;;7345038;19;107386;-88
2022/06/02 10:48:50;;;;;;;3.70;2.10;;;20.30;91.50;;;;;;7341739;19;108187;-88
2022/06/02 10:51:36;;;;;;;5.00;3.75;;;20.20;91.60;;;;;;7341899;19;109051;-87
2022/06/02 10:54:16;;;;;;;12.57;4.20;;;20.20;92.80;;;;;;7342176;19;107683;-88
2022/06/02 10:56:59;;;;;;;5.57;3.55;;;20.40;93.40;;;;;;7340276;19;111080;-87
2022/06/02 10:59:47;;;;;;;5.75;2.70;;;20.50;93.00;;;;;;7342482;19;109244;-88
2022/06/02 11:02:56;;;;;;;3.67;2.00;;;20.60;92.60;;;;;;7340599;19;107864;-88
2022/06/02 11:05:23;;;;;;;;;;;20.70;92.10;;;;;;7347153;19;108328;-87
2022/06/02 11:08:34;;;;;;;4.22;2.58;;;20.80;91.00;;;;;;7344178;19;109923;-88
2022/06/02 11:11:33;;;;;;;7.32;2.60;;;20.90;92.20;;;;;;7341091;19;108336;-89
2022/06/02 11:14:24;;;;;;;2.38;1.83;;;21.00;91.20;;;;;;7339498;19;108672;-88
2022/06/02 11:17:16;;;;;;;3.75;2.47;;;21.00;91.40;;;;;;7340335;19;110186;-88
2022/06/02 11:20:24;;;;;;;4.20;2.08;;;20.90;89.50;;;;;;7341038;19;108273;-89
2022/06/02 11:23:13;;;;;;;3.67;1.75;;;20.70;90.80;;;;;;7337993;19;110443;-88
2022/06/02 11:25:55;;;;;;;2.30;1.65;;;20.80;90.90;;;;;;7341006;19;110617;-88
2022/06/02 11:28:49;;;;;;;8.13;1.92;;;20.80;88.60;;;;;;7341871;19;108429;-88
2022/06/02 11:31:37;;;;;;;4.20;1.65;;;20.90;89.80;;;;;;7346901;19;108092;-87
2022/06/02 11:34:22;;;;;;;4.55;2.47;;;21.20;90.70;;;;;;7340508;19;107878;-88
2022/06/02 11:37:07;;;;;;;5.82;2.10;;;21.30;90.50;;;;;;7340637;19;109134;-87
2022/06/02 11:39:40;;;;;;;2.70;2.20;;;21.20;89.70;;;;;;7340997;19;108143;-88
2022/06/02 11:42:17;;;;;;;3.15;2.10;;;21.20;88.90;;;;;;7340209;19;111652;-88
2022/06/02 11:44:56;;;;;;;2.33;1.92;;;21.10;89.70;;;;;;7344183;19;111795;-88
2022/06/02 11:47:42;;;;;;;2.60;2.15;;;21.10;87.60;;;;;;7342958;19;107307;-87
2022/06/02 11:50:33;;;;;;;6.00;1.80;;;21.00;86.30;;;;;;7342279;19;109449;-88
2022/06/02 11:53:26;;;;;;;2.00;1.50;;;21.10;90.80;;;;;;7343830;19;108468;-88
2022/06/02 11:56:31;;;;;;;2.33;1.90;;;21.40;89.90;;;;;;7346597;19;111043;-87
2022/06/02 11:58:59;;;;;;;2.50;2.10;;;21.60;88.70;;;;;;7339221;19;108916;-85
2022/06/02 12:01:26;;;;;;;2.13;1.58;;;21.60;87.50;;;;;;7340462;19;107873;-86
2022/06/02 12:03:56;;;;;;;1.75;1.55;;;21.80;86.70;;;;;;7341168;19;108058;-86
2022/06/02 12:07:00;;;;;;;1.80;1.40;;;22.00;86.00;;;;;;7339688;19;111776;-86
2022/06/02 12:10:10;;;;;;;3.38;1.90;;;22.10;83.00;;;;;;7340444;19;107468;-86
2022/06/02 12:12:51;;;;;;;4.38;1.60;;;22.30;83.70;;;;;;7340111;19;108660;-85
2022/06/02 12:15:54;;;;;;;5.88;2.30;;;22.40;83.80;;;;;;7340555;19;112839;-85
2022/06/02 12:18:43;;;;;;;2.20;1.83;;;22.60;83.60;;;;;;7340146;19;107921;-86
2022/06/02 12:21:27;;;;;;;3.65;1.80;;;22.80;82.30;;;;;;7347830;19;108059;-86
2022/06/02 12:24:12;;;;;;;2.30;1.70;;;22.90;80.80;;;;;;7340302;19;108023;-86
2022/06/02 12:26:51;;;;;;;1.80;1.40;;;23.00;82.40;;;;;;7341716;19;108029;-85
2022/06/02 12:29:44;;;;;;;4.90;2.20;;;23.10;81.50;;;;;;7339814;19;107989;-85
2022/06/02 12:33:00;;;;;;;2.33;2.10;;;23.10;79.10;;;;;;7338395;19;109939;-84
2022/06/02 12:36:06;;;;;;;8.90;2.28;;;23.10;79.90;;;;;;7338614;19;107430;-84
2022/06/02 12:39:04;;;;;;;2.25;2.00;;;23.10;78.70;;;;;;7339343;19;108992;-85
2022/06/02 12:41:53;;;;;;;3.28;2.13;;;23.00;77.10;;;;;;7340296;19;110770;-84
2022/06/02 12:44:52;;;;;;;3.25;2.00;;;23.10;77.90;;;;;;7346143;19;108419;-85
2022/06/02 12:47:38;;;;;;;4.68;2.38;;;23.10;77.70;;;;;;7340000;19;108454;-85
2022/06/02 12:50:17;;;;;;;7.38;2.13;;;23.20;79.10;;;;;;7337479;19;108569;-85
2022/06/02 12:52:53;;;;;;;2.80;1.80;;;23.50;80.00;;;;;;7339062;19;109328;-84
2022/06/02 12:55:40;;;;;;;7.82;2.30;;;23.60;78.90;;;;;;7338059;19;111445;-83
2022/06/02 12:58:21;;;;;;;4.87;1.70;;;23.60;76.80;;;;;;7337535;19;108206;-84
2022/06/02 13:01:18;;;;;;;3.80;1.95;;;23.70;75.30;;;;;;7339384;19;109223;-89
2022/06/02 13:04:01;;;;;;;3.58;2.28;;;23.70;76.50;;;;;;7338304;19;108001;-85
2022/06/02 13:06:56;;;;;;;2.92;2.58;;;23.70;71.80;;;;;;7346387;19;108472;-86
2022/06/02 13:09:50;;;;;;;2.83;2.40;;;23.60;73.10;;;;;;7351715;19;109160;-86
2022/06/02 13:12:39;;;;;;;2.15;1.95;;;23.60;75.60;;;;;;7340953;19;108045;-85
2022/06/02 13:15:22;;;;;;;15.48;2.33;;;23.90;77.40;;;;;;7341278;19;111868;-85
2022/06/02 13:17:58;;;;;;;7.78;2.20;;;24.10;74.30;;;;;;7339268;19;108319;-85
2022/06/02 13:20:43;;;;;;;4.68;1.95;;;24.20;75.10;;;;;;7342151;19;108231;-87
2022/06/02 13:23:31;;;;;;;6.30;2.63;;;24.30;72.80;;;;;;7344375;19;112449;-85
2022/06/02 13:26:29;;;;;;;8.32;2.00;;;24.40;73.70;;;;;;7343703;19;109721;-86
2022/06/02 13:29:17;;;;;;;7.13;2.05;;;24.60;74.40;;;;;;7342262;19;108770;-84
2022/06/02 13:32:12;;;;;;;4.30;2.00;;;24.80;70.50;;;;;;7342589;19;109111;-85
2022/06/02 13:35:24;;;;;;;2.25;2.00;;;24.60;68.70;;;;;;7347415;19;107121;-85
2022/06/02 13:38:34;;;;;;;2.47;2.00;;;24.50;68.10;;;;;;7342128;19;112674;-85
2022/06/02 13:41:07;;;;;;;2.78;2.13;;;24.70;72.10;;;;;;7343790;19;107665;-84
2022/06/02 13:43:56;;;;;;;3.05;2.38;;;24.80;71.70;;;;;;7340715;19;108733;-84
2022/06/02 13:46:42;;;;;;;2.28;2.00;;;25.10;69.80;;;;;;7342554;19;108295;-85
2022/06/02 13:49:43;;;;;;;2.63;1.80;;;25.20;69.80;;;;;;7343741;19;108019;-85
2022/06/02 13:52:22;;;;;;;8.68;2.35;;;25.50;69.30;;;;;;7344228;19;107452;-85
2022/06/02 13:58:27;;;;;;;2.67;2.00;;;25.40;67.70;;;;;;7345601;19;111453;-85
2022/06/02 14:01:27;;;;;;;3.08;2.55;;;25.50;66.80;;;;;;7351390;19;108885;-85
2022/06/02 14:04:57;;;;;;;5.03;2.80;;;25.40;64.70;;;;;;7344588;19;108451;-85
2022/06/02 14:08:35;;;;;;;3.50;2.85;;;25.30;65.80;;;;;;7341699;19;108685;-85
2022/06/02 14:11:15;;;;;;;6.88;2.67;;;25.10;64.60;;;;;;7341550;19;109232;-85
2022/06/02 14:14:23;;;;;;;4.45;2.30;;;25.00;63.60;;;;;;7341552;19;111142;-85
2022/06/02 14:16:50;;;;;;;8.77;2.08;;;25.00;63.20;;;;;;7338248;19;111709;-84
2022/06/02 14:19:39;;;;;;;2.13;1.92;;;25.00;65.10;;;;;;7337814;19;110027;-85
2022/06/02 14:22:16;;;;;;;3.63;2.23;;;25.20;66.00;;;;;;7340932;19;110591;-86
2022/06/02 14:24:48;;;;;;;3.00;2.25;;;25.20;64.90;;;;;;7341058;19;107369;-84